sensor_id;sensor_type;location;lat;lon;timestamp;P1;durP1;ratioP1;P2;durP2;ratioP2
45434;SDS011;31183;47.404;8.500;2024-03-02T00:00:20;18.52;;;14.02;;
45434;SDS011;31183;47.404;8.500;2024-03-02T00:02:48;17.90;;;12.75;;
45434;SDS011;31183;47.404;8.500;2024-03-02T00:05:17;18.08;;;12.90;;
45434;SDS011;31183;47.404;8.500;2024-03-02T00:07:51;19.95;;;11.52;;
45434;SDS011;31183;47.404;8.500;2024-03-02T00:10:22;18.40;;;13.63;;
45434;SDS011;31183;47.404;8.500;2024-03-02T00:12:57;22.27;;;13.57;;
45434;SDS011;31183;47.404;8.500;2024-03-02T00:18:16;21.23;;;13.65;;
45434;SDS011;31183;47.404;8.500;2024-03-02T00:20:46;17.27;;;12.57;;
45434;SDS011;31183;47.404;8.500;2024-03-02T00:23:16;19.55;;;14.75;;
45434;SDS011;31183;47.404;8.500;2024-03-02T00:25:49;24.05;;;14.55;;
45434;SDS011;31183;47.404;8.500;2024-03-02T00:28:20;16.88;;;11.60;;
45434;SDS011;31183;47.404;8.500;2024-03-02T00:33:21;17.17;;;12.80;;
45434;SDS011;31183;47.404;8.500;2024-03-02T00:35:49;18.58;;;12.65;;
45434;SDS011;31183;47.404;8.500;2024-03-02T00:38:16;14.60;;;11.85;;
45434;SDS011;31183;47.404;8.500;2024-03-02T00:40:43;14.85;;;12.07;;
45434;SDS011;31183;47.404;8.500;2024-03-02T00:43:12;17.30;;;12.75;;
45434;SDS011;31183;47.404;8.500;2024-03-02T00:45:48;19.85;;;12.55;;
45434;SDS011;31183;47.404;8.500;2024-03-02T00:48:15;21.30;;;12.35;;
45434;SDS011;31183;47.404;8.500;2024-03-02T00:50:43;17.75;;;13.45;;
45434;SDS011;31183;47.404;8.500;2024-03-02T00:53:10;19.73;;;13.27;;
45434;SDS011;31183;47.404;8.500;2024-03-02T00:55:38;17.92;;;12.90;;
45434;SDS011;31183;47.404;8.500;2024-03-02T00:58:10;19.25;;;13.25;;
45434;SDS011;31183;47.404;8.500;2024-03-02T01:00:36;19.17;;;12.80;;
45434;SDS011;31183;47.404;8.500;2024-03-02T01:03:03;18.92;;;13.40;;
45434;SDS011;31183;47.404;8.500;2024-03-02T01:05:30;19.73;;;11.93;;
45434;SDS011;31183;47.404;8.500;2024-03-02T01:07:57;21.08;;;14.50;;
45434;SDS011;31183;47.404;8.500;2024-03-02T01:10:23;18.00;;;13.00;;
45434;SDS011;31183;47.404;8.500;2024-03-02T01:12:51;21.65;;;14.57;;
45434;SDS011;31183;47.404;8.500;2024-03-02T01:15:18;18.83;;;13.77;;
45434;SDS011;31183;47.404;8.500;2024-03-02T01:17:45;19.40;;;13.25;;
45434;SDS011;31183;47.404;8.500;2024-03-02T01:20:12;17.90;;;13.18;;
45434;SDS011;31183;47.404;8.500;2024-03-02T01:22:39;17.30;;;12.75;;
45434;SDS011;31183;47.404;8.500;2024-03-02T01:25:05;20.50;;;13.43;;
45434;SDS011;31183;47.404;8.500;2024-03-02T01:27:32;19.30;;;13.88;;
45434;SDS011;31183;47.404;8.500;2024-03-02T01:29:59;21.13;;;16.23;;
45434;SDS011;31183;47.404;8.500;2024-03-02T01:32:26;23.02;;;14.52;;
45434;SDS011;31183;47.404;8.500;2024-03-02T01:34:53;21.50;;;13.55;;
45434;SDS011;31183;47.404;8.500;2024-03-02T01:37:20;24.08;;;14.45;;
45434;SDS011;31183;47.404;8.500;2024-03-02T01:39:46;19.38;;;13.75;;
45434;SDS011;31183;47.404;8.500;2024-03-02T01:42:13;21.75;;;16.10;;
45434;SDS011;31183;47.404;8.500;2024-03-02T01:44:40;20.88;;;15.23;;
45434;SDS011;31183;47.404;8.500;2024-03-02T01:47:07;25.30;;;15.75;;
45434;SDS011;31183;47.404;8.500;2024-03-02T01:49:33;24.73;;;16.35;;
45434;SDS011;31183;47.404;8.500;2024-03-02T01:52:00;22.70;;;16.75;;
45434;SDS011;31183;47.404;8.500;2024-03-02T01:54:27;22.67;;;15.70;;
45434;SDS011;31183;47.404;8.500;2024-03-02T01:56:53;22.27;;;15.23;;
45434;SDS011;31183;47.404;8.500;2024-03-02T01:59:20;23.50;;;15.43;;
45434;SDS011;31183;47.404;8.500;2024-03-02T02:01:47;22.52;;;15.55;;
45434;SDS011;31183;47.404;8.500;2024-03-02T02:04:13;24.30;;;15.07;;
45434;SDS011;31183;47.404;8.500;2024-03-02T02:06:40;22.40;;;16.83;;
45434;SDS011;31183;47.404;8.500;2024-03-02T02:09:07;21.80;;;16.85;;
45434;SDS011;31183;47.404;8.500;2024-03-02T02:11:34;21.08;;;15.75;;
45434;SDS011;31183;47.404;8.500;2024-03-02T02:14:01;22.77;;;16.13;;
45434;SDS011;31183;47.404;8.500;2024-03-02T02:16:27;24.33;;;15.80;;
45434;SDS011;31183;47.404;8.500;2024-03-02T02:18:54;25.88;;;16.75;;
45434;SDS011;31183;47.404;8.500;2024-03-02T02:21:24;22.92;;;15.63;;
45434;SDS011;31183;47.404;8.500;2024-03-02T02:23:51;20.95;;;14.65;;
45434;SDS011;31183;47.404;8.500;2024-03-02T02:26:17;19.90;;;14.95;;
45434;SDS011;31183;47.404;8.500;2024-03-02T02:28:44;21.45;;;15.10;;
45434;SDS011;31183;47.404;8.500;2024-03-02T02:31:13;22.40;;;15.25;;
45434;SDS011;31183;47.404;8.500;2024-03-02T02:33:40;21.95;;;14.32;;
45434;SDS011;31183;47.404;8.500;2024-03-02T02:36:07;21.40;;;15.55;;
45434;SDS011;31183;47.404;8.500;2024-03-02T02:38:38;20.25;;;15.20;;
45434;SDS011;31183;47.404;8.500;2024-03-02T02:41:08;24.60;;;17.70;;
45434;SDS011;31183;47.404;8.500;2024-03-02T02:43:35;23.23;;;16.65;;
45434;SDS011;31183;47.404;8.500;2024-03-02T02:46:01;21.20;;;15.18;;
45434;SDS011;31183;47.404;8.500;2024-03-02T02:48:28;20.13;;;14.95;;
45434;SDS011;31183;47.404;8.500;2024-03-02T02:50:55;19.33;;;14.82;;
45434;SDS011;31183;47.404;8.500;2024-03-02T02:53:22;23.25;;;16.70;;
45434;SDS011;31183;47.404;8.500;2024-03-02T02:55:48;23.00;;;15.43;;
45434;SDS011;31183;47.404;8.500;2024-03-02T02:58:15;21.95;;;16.30;;
45434;SDS011;31183;47.404;8.500;2024-03-02T03:00:42;21.75;;;15.52;;
45434;SDS011;31183;47.404;8.500;2024-03-02T03:03:08;20.75;;;14.30;;
45434;SDS011;31183;47.404;8.500;2024-03-02T03:05:35;22.33;;;15.27;;
45434;SDS011;31183;47.404;8.500;2024-03-02T03:08:01;20.45;;;14.65;;
45434;SDS011;31183;47.404;8.500;2024-03-02T03:10:28;23.42;;;15.65;;
45434;SDS011;31183;47.404;8.500;2024-03-02T03:12:55;23.40;;;16.60;;
45434;SDS011;31183;47.404;8.500;2024-03-02T03:15:22;20.92;;;14.90;;
45434;SDS011;31183;47.404;8.500;2024-03-02T03:17:49;22.02;;;15.98;;
45434;SDS011;31183;47.404;8.500;2024-03-02T03:20:17;20.73;;;14.30;;
45434;SDS011;31183;47.404;8.500;2024-03-02T03:22:43;23.63;;;15.30;;
45434;SDS011;31183;47.404;8.500;2024-03-02T03:25:10;24.50;;;15.07;;
45434;SDS011;31183;47.404;8.500;2024-03-02T03:27:37;20.10;;;15.23;;
45434;SDS011;31183;47.404;8.500;2024-03-02T03:30:04;24.33;;;16.17;;
45434;SDS011;31183;47.404;8.500;2024-03-02T03:32:32;23.50;;;15.85;;
45434;SDS011;31183;47.404;8.500;2024-03-02T03:34:58;23.77;;;15.57;;
45434;SDS011;31183;47.404;8.500;2024-03-02T03:37:25;24.55;;;16.15;;
45434;SDS011;31183;47.404;8.500;2024-03-02T03:39:59;26.92;;;17.65;;
45434;SDS011;31183;47.404;8.500;2024-03-02T03:42:27;26.20;;;17.95;;
45434;SDS011;31183;47.404;8.500;2024-03-02T03:44:53;24.63;;;16.23;;
45434;SDS011;31183;47.404;8.500;2024-03-02T03:47:20;28.88;;;16.95;;
45434;SDS011;31183;47.404;8.500;2024-03-02T03:49:47;23.15;;;16.35;;
45434;SDS011;31183;47.404;8.500;2024-03-02T03:52:13;26.55;;;17.15;;
45434;SDS011;31183;47.404;8.500;2024-03-02T03:54:40;33.70;;;18.38;;
45434;SDS011;31183;47.404;8.500;2024-03-02T03:57:09;24.15;;;15.85;;
45434;SDS011;31183;47.404;8.500;2024-03-02T03:59:35;24.02;;;16.23;;
45434;SDS011;31183;47.404;8.500;2024-03-02T04:02:03;27.30;;;17.83;;
45434;SDS011;31183;47.404;8.500;2024-03-02T04:04:30;26.95;;;16.70;;
45434;SDS011;31183;47.404;8.500;2024-03-02T04:06:57;26.52;;;17.85;;
45434;SDS011;31183;47.404;8.500;2024-03-02T04:09:24;25.70;;;17.08;;
45434;SDS011;31183;47.404;8.500;2024-03-02T04:11:51;22.95;;;17.08;;
45434;SDS011;31183;47.404;8.500;2024-03-02T04:14:18;24.17;;;16.58;;
45434;SDS011;31183;47.404;8.500;2024-03-02T04:16:45;23.83;;;14.55;;
45434;SDS011;31183;47.404;8.500;2024-03-02T04:19:14;21.55;;;15.57;;
45434;SDS011;31183;47.404;8.500;2024-03-02T04:21:40;19.42;;;13.95;;
45434;SDS011;31183;47.404;8.500;2024-03-02T04:24:07;19.63;;;13.05;;
45434;SDS011;31183;47.404;8.500;2024-03-02T04:26:34;17.48;;;12.80;;
45434;SDS011;31183;47.404;8.500;2024-03-02T04:29:00;16.70;;;12.63;;
45434;SDS011;31183;47.404;8.500;2024-03-02T04:31:28;16.75;;;13.20;;
45434;SDS011;31183;47.404;8.500;2024-03-02T04:33:55;18.98;;;13.02;;
45434;SDS011;31183;47.404;8.500;2024-03-02T04:36:21;18.10;;;12.85;;
45434;SDS011;31183;47.404;8.500;2024-03-02T04:38:48;17.00;;;12.07;;
45434;SDS011;31183;47.404;8.500;2024-03-02T04:41:15;15.43;;;13.27;;
45434;SDS011;31183;47.404;8.500;2024-03-02T04:43:41;15.25;;;11.90;;
45434;SDS011;31183;47.404;8.500;2024-03-02T04:46:08;16.85;;;13.27;;
45434;SDS011;31183;47.404;8.500;2024-03-02T04:48:35;16.13;;;11.68;;
45434;SDS011;31183;47.404;8.500;2024-03-02T04:51:01;17.55;;;12.50;;
45434;SDS011;31183;47.404;8.500;2024-03-02T04:53:28;19.38;;;12.13;;
45434;SDS011;31183;47.404;8.500;2024-03-02T04:55:55;18.23;;;12.23;;
45434;SDS011;31183;47.404;8.500;2024-03-02T04:58:21;22.52;;;14.75;;
45434;SDS011;31183;47.404;8.500;2024-03-02T05:00:48;20.63;;;14.35;;
45434;SDS011;31183;47.404;8.500;2024-03-02T05:03:15;23.58;;;15.63;;
45434;SDS011;31183;47.404;8.500;2024-03-02T05:05:41;21.80;;;16.30;;
45434;SDS011;31183;47.404;8.500;2024-03-02T05:08:08;23.40;;;16.83;;
45434;SDS011;31183;47.404;8.500;2024-03-02T05:10:36;21.35;;;15.23;;
45434;SDS011;31183;47.404;8.500;2024-03-02T05:13:02;23.50;;;15.70;;
45434;SDS011;31183;47.404;8.500;2024-03-02T05:15:29;34.95;;;16.63;;
45434;SDS011;31183;47.404;8.500;2024-03-02T05:17:56;48.45;;;18.63;;
45434;SDS011;31183;47.404;8.500;2024-03-02T05:20:24;52.65;;;19.55;;
45434;SDS011;31183;47.404;8.500;2024-03-02T05:22:50;40.35;;;17.90;;
45434;SDS011;31183;47.404;8.500;2024-03-02T05:25:17;42.33;;;18.30;;
45434;SDS011;31183;47.404;8.500;2024-03-02T05:27:44;90.55;;;21.00;;
45434;SDS011;31183;47.404;8.500;2024-03-02T05:30:12;87.78;;;20.35;;
45434;SDS011;31183;47.404;8.500;2024-03-02T05:32:39;35.97;;;19.27;;
45434;SDS011;31183;47.404;8.500;2024-03-02T05:35:06;32.90;;;19.27;;
45434;SDS011;31183;47.404;8.500;2024-03-02T05:37:34;36.08;;;18.98;;
45434;SDS011;31183;47.404;8.500;2024-03-02T05:40:00;34.42;;;21.17;;
45434;SDS011;31183;47.404;8.500;2024-03-02T05:42:27;44.05;;;21.70;;
45434;SDS011;31183;47.404;8.500;2024-03-02T05:44:54;39.20;;;19.88;;
45434;SDS011;31183;47.404;8.500;2024-03-02T05:47:21;58.92;;;22.85;;
45434;SDS011;31183;47.404;8.500;2024-03-02T05:49:47;31.60;;;20.30;;
45434;SDS011;31183;47.404;8.500;2024-03-02T05:52:14;35.47;;;19.92;;
45434;SDS011;31183;47.404;8.500;2024-03-02T05:54:40;32.10;;;17.83;;
45434;SDS011;31183;47.404;8.500;2024-03-02T05:57:07;50.35;;;20.23;;
45434;SDS011;31183;47.404;8.500;2024-03-02T05:59:49;28.95;;;18.38;;
45434;SDS011;31183;47.404;8.500;2024-03-02T06:02:16;29.55;;;18.17;;
45434;SDS011;31183;47.404;8.500;2024-03-02T06:04:42;29.77;;;18.65;;
45434;SDS011;31183;47.404;8.500;2024-03-02T06:07:09;63.03;;;20.05;;
45434;SDS011;31183;47.404;8.500;2024-03-02T06:09:35;30.35;;;16.80;;
45434;SDS011;31183;47.404;8.500;2024-03-02T06:12:02;73.55;;;19.27;;
45434;SDS011;31183;47.404;8.500;2024-03-02T06:14:30;23.27;;;14.38;;
45434;SDS011;31183;47.404;8.500;2024-03-02T06:16:56;18.92;;;13.68;;
45434;SDS011;31183;47.404;8.500;2024-03-02T06:19:23;18.85;;;13.13;;
45434;SDS011;31183;47.404;8.500;2024-03-02T06:21:50;17.67;;;12.25;;
45434;SDS011;31183;47.404;8.500;2024-03-02T06:24:16;16.65;;;11.73;;
45434;SDS011;31183;47.404;8.500;2024-03-02T06:26:43;14.93;;;10.88;;
45434;SDS011;31183;47.404;8.500;2024-03-02T06:29:10;18.00;;;11.52;;
45434;SDS011;31183;47.404;8.500;2024-03-02T06:31:36;18.80;;;10.45;;
45434;SDS011;31183;47.404;8.500;2024-03-02T06:34:03;31.55;;;14.30;;
45434;SDS011;31183;47.404;8.500;2024-03-02T06:36:31;22.70;;;15.45;;
45434;SDS011;31183;47.404;8.500;2024-03-02T06:38:57;31.23;;;15.77;;
45434;SDS011;31183;47.404;8.500;2024-03-02T06:41:24;24.52;;;15.77;;
45434;SDS011;31183;47.404;8.500;2024-03-02T06:43:52;35.58;;;14.48;;
45434;SDS011;31183;47.404;8.500;2024-03-02T06:46:25;29.20;;;15.38;;
45434;SDS011;31183;47.404;8.500;2024-03-02T06:48:52;26.60;;;15.25;;
45434;SDS011;31183;47.404;8.500;2024-03-02T06:51:18;36.88;;;16.60;;
45434;SDS011;31183;47.404;8.500;2024-03-02T06:53:45;16.23;;;10.73;;
45434;SDS011;31183;47.404;8.500;2024-03-02T06:56:12;17.77;;;12.15;;
45434;SDS011;31183;47.404;8.500;2024-03-02T06:58:39;64.25;;;17.05;;
45434;SDS011;31183;47.404;8.500;2024-03-02T07:01:06;49.42;;;18.50;;
45434;SDS011;31183;47.404;8.500;2024-03-02T07:03:32;75.03;;;22.20;;
45434;SDS011;31183;47.404;8.500;2024-03-02T07:05:59;44.28;;;18.80;;
45434;SDS011;31183;47.404;8.500;2024-03-02T07:08:26;186.00;;;34.38;;
45434;SDS011;31183;47.404;8.500;2024-03-02T07:10:53;36.63;;;18.10;;
45434;SDS011;31183;47.404;8.500;2024-03-02T07:13:20;23.60;;;14.63;;
45434;SDS011;31183;47.404;8.500;2024-03-02T07:15:46;21.73;;;14.10;;
45434;SDS011;31183;47.404;8.500;2024-03-02T07:18:32;27.75;;;14.77;;
45434;SDS011;31183;47.404;8.500;2024-03-02T07:21:07;22.33;;;13.52;;
45434;SDS011;31183;47.404;8.500;2024-03-02T07:23:34;16.25;;;11.90;;
45434;SDS011;31183;47.404;8.500;2024-03-02T07:26:01;16.42;;;11.00;;
45434;SDS011;31183;47.404;8.500;2024-03-02T07:28:30;13.73;;;10.80;;
45434;SDS011;31183;47.404;8.500;2024-03-02T07:31:01;18.85;;;12.00;;
45434;SDS011;31183;47.404;8.500;2024-03-02T07:33:30;18.92;;;13.13;;
45434;SDS011;31183;47.404;8.500;2024-03-02T07:35:58;19.17;;;12.23;;
45434;SDS011;31183;47.404;8.500;2024-03-02T07:38:30;17.63;;;12.88;;
45434;SDS011;31183;47.404;8.500;2024-03-02T07:40:57;19.85;;;13.88;;
45434;SDS011;31183;47.404;8.500;2024-03-02T07:43:24;20.60;;;13.48;;
45434;SDS011;31183;47.404;8.500;2024-03-02T07:45:51;18.67;;;13.00;;
45434;SDS011;31183;47.404;8.500;2024-03-02T07:48:18;18.60;;;13.27;;
45434;SDS011;31183;47.404;8.500;2024-03-02T07:50:44;19.42;;;13.15;;
45434;SDS011;31183;47.404;8.500;2024-03-02T07:53:11;36.90;;;15.50;;
45434;SDS011;31183;47.404;8.500;2024-03-02T07:55:38;21.10;;;13.77;;
45434;SDS011;31183;47.404;8.500;2024-03-02T07:58:04;16.60;;;13.23;;
45434;SDS011;31183;47.404;8.500;2024-03-02T08:00:31;19.90;;;14.23;;
45434;SDS011;31183;47.404;8.500;2024-03-02T08:02:58;19.98;;;13.18;;
45434;SDS011;31183;47.404;8.500;2024-03-02T08:05:25;19.98;;;14.63;;
45434;SDS011;31183;47.404;8.500;2024-03-02T08:07:53;20.40;;;14.30;;
45434;SDS011;31183;47.404;8.500;2024-03-02T08:10:20;22.83;;;14.02;;
45434;SDS011;31183;47.404;8.500;2024-03-02T08:12:47;26.75;;;14.57;;
45434;SDS011;31183;47.404;8.500;2024-03-02T08:15:13;29.20;;;14.98;;
45434;SDS011;31183;47.404;8.500;2024-03-02T08:17:40;27.33;;;14.10;;
45434;SDS011;31183;47.404;8.500;2024-03-02T08:20:14;21.88;;;13.60;;
45434;SDS011;31183;47.404;8.500;2024-03-02T08:22:41;28.35;;;13.65;;
45434;SDS011;31183;47.404;8.500;2024-03-02T08:25:08;24.08;;;13.80;;
45434;SDS011;31183;47.404;8.500;2024-03-02T08:27:35;19.42;;;12.90;;
45434;SDS011;31183;47.404;8.500;2024-03-02T08:30:02;25.17;;;15.35;;
45434;SDS011;31183;47.404;8.500;2024-03-02T08:32:33;23.40;;;15.23;;
45434;SDS011;31183;47.404;8.500;2024-03-02T08:35:00;25.50;;;16.98;;
45434;SDS011;31183;47.404;8.500;2024-03-02T08:37:27;27.73;;;16.80;;
45434;SDS011;31183;47.404;8.500;2024-03-02T08:39:54;25.58;;;15.90;;
45434;SDS011;31183;47.404;8.500;2024-03-02T08:42:21;22.52;;;15.50;;
45434;SDS011;31183;47.404;8.500;2024-03-02T08:44:48;19.30;;;13.05;;
45434;SDS011;31183;47.404;8.500;2024-03-02T08:47:16;19.38;;;13.90;;
45434;SDS011;31183;47.404;8.500;2024-03-02T08:49:42;20.98;;;13.77;;
45434;SDS011;31183;47.404;8.500;2024-03-02T08:52:09;14.70;;;10.77;;
45434;SDS011;31183;47.404;8.500;2024-03-02T08:54:36;16.17;;;12.18;;
45434;SDS011;31183;47.404;8.500;2024-03-02T08:57:04;17.58;;;12.75;;
45434;SDS011;31183;47.404;8.500;2024-03-02T08:59:31;16.25;;;12.00;;
45434;SDS011;31183;47.404;8.500;2024-03-02T09:01:58;16.35;;;13.02;;
45434;SDS011;31183;47.404;8.500;2024-03-02T09:04:25;23.40;;;13.18;;
45434;SDS011;31183;47.404;8.500;2024-03-02T09:06:54;23.27;;;14.15;;
45434;SDS011;31183;47.404;8.500;2024-03-02T09:09:21;24.05;;;14.43;;
45434;SDS011;31183;47.404;8.500;2024-03-02T09:11:47;30.30;;;15.82;;
45434;SDS011;31183;47.404;8.500;2024-03-02T09:14:14;22.58;;;14.35;;
45434;SDS011;31183;47.404;8.500;2024-03-02T09:16:42;27.73;;;16.13;;
45434;SDS011;31183;47.404;8.500;2024-03-02T09:19:08;24.85;;;16.90;;
45434;SDS011;31183;47.404;8.500;2024-03-02T09:21:36;21.45;;;16.40;;
45434;SDS011;31183;47.404;8.500;2024-03-02T09:24:03;22.85;;;16.55;;
45434;SDS011;31183;47.404;8.500;2024-03-02T09:26:30;22.25;;;15.65;;
45434;SDS011;31183;47.404;8.500;2024-03-02T09:28:57;22.35;;;14.20;;
45434;SDS011;31183;47.404;8.500;2024-03-02T09:31:23;21.30;;;13.88;;
45434;SDS011;31183;47.404;8.500;2024-03-02T09:33:50;17.42;;;12.25;;
45434;SDS011;31183;47.404;8.500;2024-03-02T09:36:17;18.98;;;14.05;;
45434;SDS011;31183;47.404;8.500;2024-03-02T09:38:45;16.30;;;11.88;;
45434;SDS011;31183;47.404;8.500;2024-03-02T09:41:12;16.85;;;13.02;;
45434;SDS011;31183;47.404;8.500;2024-03-02T09:43:40;18.17;;;13.63;;
45434;SDS011;31183;47.404;8.500;2024-03-02T09:46:10;18.15;;;13.32;;
45434;SDS011;31183;47.404;8.500;2024-03-02T09:48:37;19.75;;;14.73;;
45434;SDS011;31183;47.404;8.500;2024-03-02T09:51:04;19.90;;;14.45;;
45434;SDS011;31183;47.404;8.500;2024-03-02T09:53:32;22.25;;;15.18;;
45434;SDS011;31183;47.404;8.500;2024-03-02T09:56:00;19.55;;;14.60;;
45434;SDS011;31183;47.404;8.500;2024-03-02T09:58:27;16.83;;;11.43;;
45434;SDS011;31183;47.404;8.500;2024-03-02T10:00:54;15.18;;;11.02;;
45434;SDS011;31183;47.404;8.500;2024-03-02T10:03:21;14.00;;;12.02;;
45434;SDS011;31183;47.404;8.500;2024-03-02T10:05:49;14.20;;;10.43;;
45434;SDS011;31183;47.404;8.500;2024-03-02T10:08:16;15.07;;;10.88;;
45434;SDS011;31183;47.404;8.500;2024-03-02T10:10:42;13.35;;;10.60;;
45434;SDS011;31183;47.404;8.500;2024-03-02T10:13:10;14.27;;;11.07;;
45434;SDS011;31183;47.404;8.500;2024-03-02T10:15:38;12.65;;;9.88;;
45434;SDS011;31183;47.404;8.500;2024-03-02T10:20:38;12.60;;;10.23;;
45434;SDS011;31183;47.404;8.500;2024-03-02T10:23:12;11.95;;;10.35;;
45434;SDS011;31183;47.404;8.500;2024-03-02T10:25:40;14.90;;;10.23;;
45434;SDS011;31183;47.404;8.500;2024-03-02T10:28:20;11.90;;;8.77;;
45434;SDS011;31183;47.404;8.500;2024-03-02T10:30:47;11.30;;;9.43;;
45434;SDS011;31183;47.404;8.500;2024-03-02T10:33:17;13.98;;;10.43;;
45434;SDS011;31183;47.404;8.500;2024-03-02T10:35:43;11.70;;;9.13;;
45434;SDS011;31183;47.404;8.500;2024-03-02T10:38:10;10.75;;;9.00;;
45434;SDS011;31183;47.404;8.500;2024-03-02T10:40:38;11.60;;;9.25;;
45434;SDS011;31183;47.404;8.500;2024-03-02T10:43:04;12.45;;;9.02;;
45434;SDS011;31183;47.404;8.500;2024-03-02T10:45:32;11.25;;;9.10;;
45434;SDS011;31183;47.404;8.500;2024-03-02T10:47:59;11.38;;;9.20;;
45434;SDS011;31183;47.404;8.500;2024-03-02T10:50:28;9.43;;;8.45;;
45434;SDS011;31183;47.404;8.500;2024-03-02T10:52:56;10.85;;;8.48;;
45434;SDS011;31183;47.404;8.500;2024-03-02T10:55:23;9.68;;;8.57;;
45434;SDS011;31183;47.404;8.500;2024-03-02T10:57:51;10.32;;;8.75;;
45434;SDS011;31183;47.404;8.500;2024-03-02T11:00:20;18.17;;;9.37;;
45434;SDS011;31183;47.404;8.500;2024-03-02T11:02:56;11.02;;;9.07;;
45434;SDS011;31183;47.404;8.500;2024-03-02T11:05:27;10.98;;;9.00;;
45434;SDS011;31183;47.404;8.500;2024-03-02T11:08:04;11.13;;;9.43;;
45434;SDS011;31183;47.404;8.500;2024-03-02T11:10:40;9.38;;;8.48;;
45434;SDS011;31183;47.404;8.500;2024-03-02T11:13:20;11.60;;;8.85;;
45434;SDS011;31183;47.404;8.500;2024-03-02T11:15:51;11.98;;;8.50;;
45434;SDS011;31183;47.404;8.500;2024-03-02T11:18:21;10.82;;;9.27;;
45434;SDS011;31183;47.404;8.500;2024-03-02T11:20:48;9.77;;;8.75;;
45434;SDS011;31183;47.404;8.500;2024-03-02T11:23:15;11.35;;;9.43;;
45434;SDS011;31183;47.404;8.500;2024-03-02T11:25:41;10.85;;;8.25;;
45434;SDS011;31183;47.404;8.500;2024-03-02T11:28:08;10.70;;;8.95;;
45434;SDS011;31183;47.404;8.500;2024-03-02T11:33:05;9.60;;;8.40;;
45434;SDS011;31183;47.404;8.500;2024-03-02T11:35:35;10.93;;;8.63;;
45434;SDS011;31183;47.404;8.500;2024-03-02T11:38:03;12.60;;;9.75;;
45434;SDS011;31183;47.404;8.500;2024-03-02T11:40:30;10.32;;;8.68;;
45434;SDS011;31183;47.404;8.500;2024-03-02T11:42:59;11.48;;;9.85;;
45434;SDS011;31183;47.404;8.500;2024-03-02T11:45:26;11.70;;;9.68;;
45434;SDS011;31183;47.404;8.500;2024-03-02T11:47:53;11.88;;;9.73;;
45434;SDS011;31183;47.404;8.500;2024-03-02T11:50:34;12.07;;;10.18;;
45434;SDS011;31183;47.404;8.500;2024-03-02T11:53:09;14.35;;;10.95;;
45434;SDS011;31183;47.404;8.500;2024-03-02T11:55:37;11.32;;;9.50;;
45434;SDS011;31183;47.404;8.500;2024-03-02T11:58:04;14.10;;;11.50;;
45434;SDS011;31183;47.404;8.500;2024-03-02T12:00:31;12.88;;;9.70;;
45434;SDS011;31183;47.404;8.500;2024-03-02T12:03:02;13.45;;;9.93;;
45434;SDS011;31183;47.404;8.500;2024-03-02T12:05:33;12.52;;;10.20;;
45434;SDS011;31183;47.404;8.500;2024-03-02T12:08:01;11.52;;;9.52;;
45434;SDS011;31183;47.404;8.500;2024-03-02T12:10:30;13.30;;;9.75;;
45434;SDS011;31183;47.404;8.500;2024-03-02T12:13:01;12.27;;;10.02;;
45434;SDS011;31183;47.404;8.500;2024-03-02T12:15:30;14.40;;;11.30;;
45434;SDS011;31183;47.404;8.500;2024-03-02T12:18:03;13.95;;;10.25;;
45434;SDS011;31183;47.404;8.500;2024-03-02T12:20:31;14.13;;;9.95;;
45434;SDS011;31183;47.404;8.500;2024-03-02T12:22:58;13.93;;;10.90;;
45434;SDS011;31183;47.404;8.500;2024-03-02T12:25:27;14.23;;;10.55;;
45434;SDS011;31183;47.404;8.500;2024-03-02T12:27:54;16.38;;;9.93;;
45434;SDS011;31183;47.404;8.500;2024-03-02T12:30:22;13.85;;;10.50;;
45434;SDS011;31183;47.404;8.500;2024-03-02T12:32:49;13.50;;;10.40;;
45434;SDS011;31183;47.404;8.500;2024-03-02T12:35:17;9.73;;;7.50;;
45434;SDS011;31183;47.404;8.500;2024-03-02T12:37:44;14.80;;;9.73;;
45434;SDS011;31183;47.404;8.500;2024-03-02T12:40:12;10.27;;;8.52;;
45434;SDS011;31183;47.404;8.500;2024-03-02T12:42:40;8.63;;;7.18;;
45434;SDS011;31183;47.404;8.500;2024-03-02T12:45:10;13.35;;;9.57;;
45434;SDS011;31183;47.404;8.500;2024-03-02T12:47:39;12.63;;;8.77;;
45434;SDS011;31183;47.404;8.500;2024-03-02T12:50:07;10.15;;;8.30;;
45434;SDS011;31183;47.404;8.500;2024-03-02T12:52:34;9.18;;;8.05;;
45434;SDS011;31183;47.404;8.500;2024-03-02T12:55:03;11.73;;;7.63;;
45434;SDS011;31183;47.404;8.500;2024-03-02T12:57:32;10.80;;;8.95;;
45434;SDS011;31183;47.404;8.500;2024-03-02T12:59:59;10.20;;;7.40;;
45434;SDS011;31183;47.404;8.500;2024-03-02T13:02:30;8.82;;;6.60;;
45434;SDS011;31183;47.404;8.500;2024-03-02T13:04:57;11.48;;;9.02;;
45434;SDS011;31183;47.404;8.500;2024-03-02T13:07:25;10.75;;;7.65;;
45434;SDS011;31183;47.404;8.500;2024-03-02T13:09:52;8.38;;;6.93;;
45434;SDS011;31183;47.404;8.500;2024-03-02T13:12:22;8.82;;;7.32;;
45434;SDS011;31183;47.404;8.500;2024-03-02T13:14:53;10.15;;;8.00;;
45434;SDS011;31183;47.404;8.500;2024-03-02T13:17:20;7.65;;;6.85;;
45434;SDS011;31183;47.404;8.500;2024-03-02T13:19:50;7.90;;;4.60;;
45434;SDS011;31183;47.404;8.500;2024-03-02T13:22:24;3.80;;;3.42;;
45434;SDS011;31183;47.404;8.500;2024-03-02T13:24:52;5.03;;;4.05;;
45434;SDS011;31183;47.404;8.500;2024-03-02T13:27:20;4.13;;;3.50;;
45434;SDS011;31183;47.404;8.500;2024-03-02T13:29:47;5.32;;;3.30;;
45434;SDS011;31183;47.404;8.500;2024-03-02T13:32:14;4.88;;;3.72;;
45434;SDS011;31183;47.404;8.500;2024-03-02T13:34:42;4.95;;;3.80;;
45434;SDS011;31183;47.404;8.500;2024-03-02T13:37:09;5.25;;;4.53;;
45434;SDS011;31183;47.404;8.500;2024-03-02T13:39:36;5.68;;;4.47;;
45434;SDS011;31183;47.404;8.500;2024-03-02T13:42:09;4.82;;;4.18;;
45434;SDS011;31183;47.404;8.500;2024-03-02T13:44:36;5.68;;;4.22;;
45434;SDS011;31183;47.404;8.500;2024-03-02T13:47:03;6.97;;;4.20;;
45434;SDS011;31183;47.404;8.500;2024-03-02T13:49:31;5.28;;;4.50;;
45434;SDS011;31183;47.404;8.500;2024-03-02T13:52:07;5.95;;;4.25;;
45434;SDS011;31183;47.404;8.500;2024-03-02T13:54:39;5.20;;;4.20;;
45434;SDS011;31183;47.404;8.500;2024-03-02T13:57:08;5.95;;;4.75;;
45434;SDS011;31183;47.404;8.500;2024-03-02T13:59:36;5.65;;;5.05;;
45434;SDS011;31183;47.404;8.500;2024-03-02T14:02:07;6.72;;;4.10;;
45434;SDS011;31183;47.404;8.500;2024-03-02T14:04:35;7.45;;;4.85;;
45434;SDS011;31183;47.404;8.500;2024-03-02T14:07:02;6.00;;;5.00;;
45434;SDS011;31183;47.404;8.500;2024-03-02T14:09:30;7.20;;;4.80;;
45434;SDS011;31183;47.404;8.500;2024-03-02T14:11:57;6.93;;;4.70;;
45434;SDS011;31183;47.404;8.500;2024-03-02T14:14:23;6.65;;;4.78;;
45434;SDS011;31183;47.404;8.500;2024-03-02T14:16:50;5.05;;;4.55;;
45434;SDS011;31183;47.404;8.500;2024-03-02T14:19:17;7.68;;;4.75;;
45434;SDS011;31183;47.404;8.500;2024-03-02T14:21:43;5.78;;;5.13;;
45434;SDS011;31183;47.404;8.500;2024-03-02T14:24:10;7.22;;;4.80;;
45434;SDS011;31183;47.404;8.500;2024-03-02T14:26:37;5.03;;;4.40;;
45434;SDS011;31183;47.404;8.500;2024-03-02T14:29:04;5.30;;;4.50;;
45434;SDS011;31183;47.404;8.500;2024-03-02T14:31:31;6.80;;;5.05;;
45434;SDS011;31183;47.404;8.500;2024-03-02T14:33:58;6.18;;;4.60;;
45434;SDS011;31183;47.404;8.500;2024-03-02T14:36:26;6.82;;;4.90;;
45434;SDS011;31183;47.404;8.500;2024-03-02T14:38:54;5.57;;;4.35;;